createdAt,value
2019-04-30T00:02:02.469Z,6.70
2019-04-30T00:04:40.555Z,6.70
2019-04-30T00:07:14.697Z,6.70
2019-04-30T00:09:41.532Z,6.60
2019-04-30T00:12:11.328Z,6.70
2019-04-30T00:14:41.307Z,6.70
2019-04-30T00:17:15.804Z,6.60
2019-04-30T00:19:42.120Z,6.60
2019-04-30T00:22:11.521Z,6.60
2019-04-30T00:24:46.898Z,6.60
2019-04-30T00:27:12.065Z,6.60
2019-04-30T00:29:41.443Z,6.60
2019-04-30T00:32:10.804Z,6.70
2019-04-30T00:34:40.220Z,6.60
2019-04-30T00:37:17.224Z,6.60
2019-04-30T00:39:51.167Z,6.70
2019-04-30T00:42:23.925Z,6.70
2019-04-30T00:44:49.325Z,6.70
2019-04-30T00:47:19.056Z,6.70
2019-04-30T00:49:52.289Z,6.70
2019-04-30T00:52:20.212Z,6.60
2019-04-30T00:54:51.504Z,6.60
2019-04-30T00:57:21.653Z,6.60
2019-04-30T00:59:51.041Z,6.60
2019-04-30T01:02:48.477Z,6.50
2019-04-30T01:05:19.752Z,6.50
2019-04-30T01:07:51.852Z,6.50
2019-04-30T01:10:24.837Z,6.50
2019-04-30T01:12:52.967Z,6.50
2019-04-30T01:15:24.895Z,6.50
2019-04-30T01:17:54.953Z,6.50
2019-04-30T01:20:30.960Z,6.60
2019-04-30T01:22:58.555Z,6.60
2019-04-30T01:25:29.974Z,6.60
2019-04-30T01:27:59.790Z,6.60
2019-04-30T01:30:29.281Z,6.60
2019-04-30T01:33:01.058Z,6.50
2019-04-30T01:35:32.855Z,6.50
2019-04-30T01:38:11.213Z,6.50
2019-04-30T01:40:47.440Z,6.50
2019-04-30T01:43:15.173Z,6.50
2019-04-30T01:45:46.113Z,6.40
2019-04-30T01:48:15.713Z,6.40
2019-04-30T01:50:46.083Z,6.50
2019-04-30T01:53:18.646Z,6.50
2019-04-30T01:55:55.293Z,6.50
2019-04-30T01:58:34.844Z,6.50
2019-04-30T02:01:09.405Z,6.50
2019-04-30T02:03:41.860Z,6.50
2019-04-30T02:06:12.173Z,6.50
2019-04-30T02:08:46.629Z,6.50
2019-04-30T02:11:18.950Z,6.50
2019-04-30T02:13:49.192Z,6.50
2019-04-30T02:16:23.579Z,6.50
2019-04-30T02:18:59.679Z,6.50
2019-04-30T02:21:35.317Z,6.50
2019-04-30T02:24:04.705Z,6.50
2019-04-30T02:26:39.475Z,6.50
2019-04-30T02:29:16.728Z,6.50
2019-04-30T02:31:50.441Z,6.60
2019-04-30T02:34:35.432Z,6.50
2019-04-30T02:37:21.054Z,6.50
2019-04-30T02:39:51.783Z,6.60
2019-04-30T02:42:24.514Z,6.60
2019-04-30T02:44:54.460Z,6.60
2019-04-30T02:47:26.587Z,6.60
2019-04-30T02:50:11.584Z,6.60
2019-04-30T02:52:32.007Z,6.60
2019-04-30T02:55:04.610Z,6.60
2019-04-30T02:57:40.088Z,6.60
2019-04-30T03:00:20.003Z,6.70
2019-04-30T03:02:50.473Z,6.70
2019-04-30T03:05:22.710Z,6.70
2019-04-30T03:07:53.725Z,6.70
2019-04-30T03:10:30.366Z,6.70
2019-04-30T03:13:00.179Z,6.70
2019-04-30T03:15:32.353Z,6.70
2019-04-30T03:18:19.605Z,6.70
2019-04-30T03:21:12.077Z,6.70
2019-04-30T03:23:43.719Z,6.70
2019-04-30T03:26:19.829Z,6.70
2019-04-30T03:28:49.399Z,6.70
2019-04-30T03:31:22.613Z,6.70
2019-04-30T03:33:52.671Z,6.70
2019-04-30T03:36:32.614Z,6.70
2019-04-30T03:39:00.477Z,6.70
2019-04-30T03:41:33.503Z,6.70
2019-04-30T03:44:21.058Z,6.70
2019-04-30T03:46:40.075Z,6.70
2019-04-30T03:49:13.408Z,6.70
2019-04-30T03:51:45.203Z,6.80
2019-04-30T03:54:16.208Z,6.80
2019-04-30T03:56:51.044Z,6.70
2019-04-30T03:59:26.125Z,6.70
2019-04-30T04:02:09.414Z,6.70
2019-04-30T04:04:52.093Z,6.70
2019-04-30T04:07:39.475Z,6.70
2019-04-30T04:10:19.528Z,6.70
2019-04-30T04:12:49.968Z,6.70
2019-04-30T04:15:20.726Z,6.70
2019-04-30T04:17:51.256Z,6.80
2019-04-30T04:20:24.891Z,6.70
2019-04-30T04:25:20.470Z,6.70
2019-04-30T04:27:51.437Z,6.90
2019-04-30T04:30:20.790Z,6.90
2019-04-30T04:32:50.677Z,6.90
2019-04-30T04:35:21.086Z,6.90
2019-04-30T04:37:54.241Z,6.90
2019-04-30T04:40:26.294Z,6.90
2019-04-30T04:42:56.483Z,6.90
2019-04-30T04:45:30.565Z,6.90
2019-04-30T04:48:00.373Z,6.90
2019-04-30T04:50:30.248Z,6.90
2019-04-30T04:53:00.494Z,6.90
2019-04-30T04:55:31.870Z,6.90
2019-04-30T04:58:04.138Z,6.90
2019-04-30T05:00:34.414Z,7.00
2019-04-30T05:03:12.838Z,7.00
2019-04-30T05:05:43.929Z,7.00
2019-04-30T05:08:14.126Z,7.00
2019-04-30T05:10:45.309Z,7.00
2019-04-30T05:13:16.198Z,7.00
2019-04-30T05:15:45.585Z,7.00
2019-04-30T05:18:16.281Z,7.00
2019-04-30T05:20:45.701Z,7.00
2019-04-30T05:23:16.628Z,7.00
2019-04-30T05:25:46.216Z,7.00
2019-04-30T05:28:18.942Z,7.00
2019-04-30T05:30:49.385Z,7.00
2019-04-30T05:33:19.454Z,7.00
2019-04-30T05:35:49.618Z,7.00
2019-04-30T05:38:24.459Z,7.00
2019-04-30T05:40:54.758Z,6.90
2019-04-30T05:43:28.838Z,7.00
2019-04-30T05:46:00.720Z,7.00
2019-04-30T05:48:30.147Z,7.00
2019-04-30T05:50:59.921Z,7.00
2019-04-30T05:53:29.326Z,7.00
2019-04-30T05:56:00.065Z,7.00
2019-04-30T05:58:34.467Z,6.90
2019-04-30T06:01:03.765Z,6.90
2019-04-30T06:03:33.468Z,7.00
2019-04-30T06:06:03.637Z,7.00
2019-04-30T06:08:40.580Z,7.00
2019-04-30T06:11:30.126Z,7.00
2019-04-30T06:14:18.662Z,7.10
2019-04-30T06:17:06.118Z,7.00
2019-04-30T06:19:36.212Z,7.10
2019-04-30T06:22:08.624Z,7.00
2019-04-30T06:24:42.649Z,6.90
2019-04-30T06:27:13.603Z,7.00
2019-04-30T06:29:46.257Z,7.00
2019-04-30T06:32:18.648Z,7.00
2019-04-30T06:34:50.137Z,7.00
2019-04-30T06:37:21.373Z,7.10
2019-04-30T06:39:51.700Z,7.10
2019-04-30T06:42:22.060Z,7.10
2019-04-30T06:44:53.705Z,7.10
2019-04-30T06:47:32.779Z,7.10
2019-04-30T06:49:55.624Z,7.20
2019-04-30T06:52:29.225Z,7.20
2019-04-30T06:54:59.660Z,7.20
2019-04-30T06:57:29.867Z,7.20
2019-04-30T06:59:59.696Z,7.10
2019-04-30T07:02:30.947Z,7.20
2019-04-30T07:05:00.467Z,7.20
2019-04-30T07:07:38.708Z,7.30
2019-04-30T07:10:10.188Z,7.30
2019-04-30T07:12:59.009Z,7.30
2019-04-30T07:15:29.672Z,7.40
2019-04-30T07:17:59.334Z,7.40
2019-04-30T07:20:29.154Z,7.40
2019-04-30T07:23:02.969Z,7.40
2019-04-30T07:25:32.089Z,7.30
2019-04-30T07:28:01.481Z,7.30
2019-04-30T07:30:39.692Z,7.40
2019-04-30T07:33:12.716Z,7.40
2019-04-30T07:35:42.694Z,7.30
2019-04-30T07:38:19.217Z,7.30
2019-04-30T07:40:49.304Z,7.40
2019-04-30T07:43:22.388Z,7.50
2019-04-30T07:45:52.512Z,7.50
2019-04-30T07:48:26.457Z,7.50
2019-04-30T07:50:55.609Z,7.50
2019-04-30T07:53:25.661Z,7.50
2019-04-30T07:55:58.788Z,7.60
2019-04-30T07:58:29.875Z,7.60
2019-04-30T08:00:59.965Z,7.70
2019-04-30T08:03:50.050Z,7.70
2019-04-30T08:06:22.371Z,7.70
2019-04-30T08:08:57.284Z,7.70
2019-04-30T08:11:26.456Z,7.70
2019-04-30T08:14:00.829Z,7.70
2019-04-30T08:16:38.593Z,7.80
2019-04-30T08:19:09.114Z,7.80
2019-04-30T08:21:39.221Z,7.80
2019-04-30T08:24:09.410Z,7.80
2019-04-30T08:26:41.248Z,7.90
2019-04-30T08:29:11.710Z,7.90
2019-04-30T08:31:42.253Z,7.80
2019-04-30T08:34:11.640Z,7.80
2019-04-30T08:36:41.068Z,7.80
2019-04-30T08:39:11.976Z,7.80
2019-04-30T08:41:44.160Z,7.80
2019-04-30T08:44:16.858Z,7.70
2019-04-30T08:46:49.071Z,7.70
2019-04-30T08:49:19.900Z,7.70
2019-04-30T08:51:52.060Z,7.80
2019-04-30T08:54:21.503Z,7.90
2019-04-30T08:56:50.865Z,7.90
2019-04-30T08:59:21.251Z,8.00
2019-04-30T09:01:58.752Z,8.20
2019-04-30T09:04:31.843Z,8.30
2019-04-30T09:07:02.155Z,8.30
2019-04-30T09:09:32.132Z,8.30
2019-04-30T09:12:01.544Z,8.40
2019-04-30T09:14:32.425Z,8.70
2019-04-30T09:17:02.444Z,8.80
2019-04-30T09:19:33.268Z,9.20
2019-04-30T09:22:11.052Z,9.50
2019-04-30T09:24:35.655Z,9.70
2019-04-30T09:27:05.589Z,9.80
2019-04-30T09:29:35.997Z,10.00
2019-04-30T09:32:08.974Z,10.10
2019-04-30T09:34:40.963Z,10.10
2019-04-30T09:37:11.042Z,10.20
2019-04-30T09:39:42.584Z,10.20
2019-04-30T09:42:13.400Z,10.50
2019-04-30T09:44:45.819Z,10.60
2019-04-30T09:47:17.375Z,10.40
2019-04-30T09:49:49.192Z,10.50
2019-04-30T09:52:21.762Z,10.40
2019-04-30T09:54:52.792Z,10.40
2019-04-30T09:57:23.100Z,10.50
2019-04-30T09:59:54.589Z,10.50
2019-04-30T10:02:24.727Z,10.50
2019-04-30T10:04:56.480Z,10.30
2019-04-30T10:07:26.738Z,10.20
2019-04-30T10:09:58.925Z,10.10
2019-04-30T10:12:29.378Z,10.30
2019-04-30T10:15:03.393Z,10.70
2019-04-30T10:17:36.992Z,11.10
2019-04-30T10:20:09.740Z,11.60
2019-04-30T10:22:40.128Z,11.90
2019-04-30T10:25:12.324Z,12.40
2019-04-30T10:27:41.716Z,12.70
2019-04-30T10:30:12.861Z,13.00
2019-04-30T10:32:42.277Z,13.10
2019-04-30T10:35:13.136Z,13.30
2019-04-30T10:37:42.961Z,13.20
2019-04-30T10:40:13.832Z,13.00
2019-04-30T10:42:43.742Z,12.60
2019-04-30T10:45:16.296Z,12.20
2019-04-30T10:47:46.515Z,11.90
2019-04-30T10:50:17.874Z,11.60
2019-04-30T10:52:49.153Z,11.50
2019-04-30T10:55:20.049Z,11.40
2019-04-30T10:57:50.287Z,11.60
2019-04-30T11:00:21.709Z,11.80
2019-04-30T11:02:51.104Z,12.00
2019-04-30T11:05:21.132Z,12.40
2019-04-30T11:07:53.495Z,12.80
2019-04-30T11:10:25.231Z,13.20
2019-04-30T11:12:54.832Z,13.30
2019-04-30T11:15:24.228Z,13.30
2019-04-30T11:17:53.783Z,13.30
2019-04-30T11:20:26.390Z,13.20
2019-04-30T11:22:56.374Z,13.30
2019-04-30T11:25:30.642Z,13.70
2019-04-30T11:27:59.463Z,14.00
2019-04-30T11:30:30.678Z,14.30
2019-04-30T11:33:00.374Z,14.60
2019-04-30T11:35:30.856Z,14.60
2019-04-30T11:38:00.796Z,14.50
2019-04-30T11:40:36.832Z,14.50
2019-04-30T11:43:06.519Z,14.60
2019-04-30T11:46:21.494Z,14.70
2019-04-30T11:48:54.089Z,14.60
2019-04-30T11:51:26.934Z,14.60
2019-04-30T11:53:55.662Z,14.80
2019-04-30T11:56:27.087Z,14.70
2019-04-30T11:58:58.921Z,14.60
2019-04-30T12:01:31.029Z,14.70
2019-04-30T12:04:00.808Z,14.80
2019-04-30T12:06:30.462Z,15.10
2019-04-30T12:09:20.115Z,15.20
2019-04-30T12:11:52.066Z,15.40
2019-04-30T12:14:22.574Z,15.80
2019-04-30T12:16:52.273Z,15.80
2019-04-30T12:19:21.660Z,15.80
2019-04-30T12:21:51.048Z,16.00
2019-04-30T12:24:20.485Z,16.10
2019-04-30T12:26:49.872Z,16.00
2019-04-30T12:29:20.976Z,15.90
2019-04-30T12:31:50.344Z,15.70
2019-04-30T12:34:21.175Z,15.60
2019-04-30T12:36:51.651Z,15.40
2019-04-30T12:39:21.565Z,15.50
2019-04-30T12:41:51.153Z,15.50
2019-04-30T12:44:20.542Z,15.50
2019-04-30T12:46:52.084Z,15.40
2019-04-30T12:49:22.577Z,15.30
2019-04-30T12:52:08.773Z,15.10
2019-04-30T12:54:52.054Z,15.30
2019-04-30T12:57:35.613Z,15.30
2019-04-30T13:00:10.000Z,15.40
2019-04-30T13:02:40.538Z,15.50
2019-04-30T13:05:11.036Z,15.70
2019-04-30T13:07:49.550Z,15.80
2019-04-30T13:10:20.127Z,15.70
2019-04-30T13:12:52.679Z,15.60
2019-04-30T13:15:24.228Z,15.60
2019-04-30T13:17:58.414Z,15.70
2019-04-30T13:20:29.848Z,15.70
2019-04-30T13:23:00.474Z,15.60
2019-04-30T13:25:35.187Z,15.60
2019-04-30T13:28:06.048Z,15.50
2019-04-30T13:30:36.363Z,15.30
2019-04-30T13:33:21.720Z,15.20
2019-04-30T13:35:51.177Z,15.40
2019-04-30T13:38:47.491Z,15.50
2019-04-30T13:41:39.639Z,15.40
2019-04-30T13:44:13.371Z,15.70
2019-04-30T13:46:42.963Z,15.90
2019-04-30T13:55:53.093Z,16.20
2019-04-30T13:58:23.444Z,15.70
2019-04-30T14:00:52.863Z,15.60
2019-04-30T14:03:39.048Z,15.90
2019-04-30T14:06:10.375Z,16.00
2019-04-30T14:08:45.063Z,15.80
2019-04-30T14:11:19.003Z,15.90
2019-04-30T14:13:48.535Z,16.00
2019-04-30T14:16:18.064Z,16.10
2019-04-30T14:18:48.808Z,16.00
2019-04-30T14:21:19.354Z,16.10
2019-04-30T14:23:49.609Z,16.60
2019-04-30T14:26:19.407Z,16.70
2019-04-30T14:28:53.546Z,16.80
2019-04-30T14:31:26.449Z,16.60
2019-04-30T14:33:56.037Z,16.30
2019-04-30T14:36:26.008Z,16.10
2019-04-30T14:39:13.620Z,16.20
2019-04-30T14:41:33.682Z,16.10
2019-04-30T14:44:11.025Z,16.10
2019-04-30T14:46:50.920Z,16.20
2019-04-30T14:50:01.580Z,16.10
2019-04-30T14:52:26.827Z,15.90
2019-04-30T14:55:12.824Z,15.50
2019-04-30T14:57:56.642Z,15.30
2019-04-30T15:00:59.345Z,15.20
2019-04-30T15:03:30.308Z,15.30
2019-04-30T15:06:01.822Z,15.10
2019-04-30T15:08:33.132Z,15.30
2019-04-30T15:11:03.749Z,15.30
2019-04-30T15:13:33.569Z,15.20
2019-04-30T15:16:03.414Z,14.80
2019-04-30T15:18:32.820Z,14.90
2019-04-30T15:21:02.492Z,14.80
2019-04-30T15:23:58.711Z,14.80
2019-04-30T15:26:25.128Z,14.90
2019-04-30T15:29:00.712Z,15.00
2019-04-30T15:31:30.849Z,15.10
2019-04-30T15:34:06.146Z,15.10
2019-04-30T15:36:39.323Z,15.20
2019-04-30T15:39:17.806Z,14.80
2019-04-30T15:41:50.917Z,14.60
2019-04-30T15:44:21.261Z,14.60
2019-04-30T15:46:52.398Z,14.40
2019-04-30T15:49:24.882Z,14.40
2019-04-30T15:51:55.617Z,14.40
2019-04-30T15:54:29.498Z,14.20
2019-04-30T15:57:00.570Z,14.10
2019-04-30T15:59:34.941Z,13.90
2019-04-30T16:02:12.233Z,14.00
2019-04-30T16:05:00.212Z,14.00
2019-04-30T16:07:31.441Z,14.00
2019-04-30T16:10:20.457Z,13.90
2019-04-30T16:13:09.684Z,14.00
2019-04-30T16:15:40.371Z,13.90
2019-04-30T16:18:09.828Z,13.80
2019-04-30T16:20:43.739Z,13.70
2019-04-30T16:23:13.172Z,13.70
2019-04-30T16:25:43.051Z,13.70
2019-04-30T16:28:14.082Z,13.70
2019-04-30T16:30:44.205Z,13.70
2019-04-30T16:33:13.721Z,13.60
2019-04-30T16:35:43.890Z,13.60
2019-04-30T16:38:18.377Z,13.60
2019-04-30T16:40:48.841Z,13.70
2019-04-30T16:43:20.270Z,13.60
2019-04-30T16:45:49.824Z,13.60
2019-04-30T16:48:19.801Z,13.50
2019-04-30T16:50:51.236Z,13.40
2019-04-30T16:53:21.530Z,13.30
2019-04-30T16:55:50.862Z,13.30
2019-04-30T16:58:21.556Z,13.20
2019-04-30T17:00:51.652Z,13.10
2019-04-30T17:03:34.116Z,13.10
2019-04-30T17:06:10.968Z,12.90
2019-04-30T17:08:45.961Z,12.80
2019-04-30T17:11:38.875Z,12.70
2019-04-30T17:14:11.422Z,12.60
2019-04-30T17:16:40.886Z,12.60
2019-04-30T17:19:11.971Z,12.50
2019-04-30T17:21:41.609Z,12.40
2019-04-30T17:24:13.835Z,12.30
2019-04-30T17:26:46.036Z,12.30
2019-04-30T17:29:20.081Z,12.20
2019-04-30T17:31:49.714Z,12.20
2019-04-30T17:34:19.287Z,12.10
2019-04-30T17:36:49.578Z,12.10
2019-04-30T17:39:20.373Z,12.00
2019-04-30T17:41:50.004Z,12.00
2019-04-30T17:44:19.408Z,12.00
2019-04-30T17:46:49.777Z,12.00
2019-04-30T17:49:22.381Z,12.00
2019-04-30T17:51:52.397Z,11.90
2019-04-30T17:54:21.786Z,11.90
2019-04-30T17:56:51.204Z,12.00
2019-04-30T17:59:21.410Z,12.00
2019-04-30T18:01:59.821Z,11.90
2019-04-30T18:04:32.291Z,12.00
2019-04-30T18:07:03.042Z,12.10
2019-04-30T18:09:33.477Z,12.10
2019-04-30T18:12:05.075Z,12.10
2019-04-30T18:14:34.884Z,12.20
2019-04-30T18:17:04.765Z,12.20
2019-04-30T18:19:59.422Z,12.30
2019-04-30T18:22:46.530Z,12.20
2019-04-30T18:25:40.292Z,12.20
2019-04-30T18:28:12.942Z,12.00
2019-04-30T18:30:46.342Z,12.00
2019-04-30T18:33:15.982Z,12.00
2019-04-30T18:35:48.637Z,11.90
2019-04-30T18:38:25.279Z,11.90
2019-04-30T18:41:01.068Z,11.90
2019-04-30T18:43:30.881Z,11.80
2019-04-30T18:46:02.090Z,11.80
2019-04-30T18:48:33.036Z,11.90
2019-04-30T18:51:23.493Z,11.90
2019-04-30T18:53:39.743Z,11.90
2019-04-30T18:56:14.427Z,11.90
2019-04-30T18:58:43.615Z,11.90
2019-04-30T19:01:13.719Z,11.90
2019-04-30T19:03:46.375Z,11.90
2019-04-30T19:06:26.225Z,11.90
2019-04-30T19:09:29.725Z,11.90
2019-04-30T19:12:08.551Z,11.70
2019-04-30T19:14:49.319Z,11.70
2019-04-30T19:17:39.321Z,11.60
2019-04-30T19:20:25.472Z,11.60
2019-04-30T19:22:57.328Z,11.60
2019-04-30T19:25:28.914Z,11.50
2019-04-30T19:28:11.209Z,11.60
2019-04-30T19:30:36.422Z,11.60
2019-04-30T19:33:05.961Z,11.50
2019-04-30T19:35:35.429Z,11.50
2019-04-30T19:38:05.876Z,11.60
2019-04-30T19:40:35.496Z,11.60
2019-04-30T19:43:05.230Z,11.50
2019-04-30T19:45:40.378Z,11.50
2019-04-30T19:48:16.020Z,11.50
2019-04-30T19:50:46.525Z,11.50
2019-04-30T19:53:21.975Z,11.50
2019-04-30T19:55:51.200Z,11.40
2019-04-30T19:58:29.406Z,11.30
2019-04-30T20:00:52.940Z,11.20
2019-04-30T20:03:22.425Z,11.20
2019-04-30T20:05:53.775Z,11.20
2019-04-30T20:08:23.385Z,11.20
2019-04-30T20:10:55.573Z,11.20
2019-04-30T20:13:36.232Z,11.00
2019-04-30T20:15:59.501Z,11.10
2019-04-30T20:18:29.574Z,11.00
2019-04-30T20:21:01.481Z,11.00
2019-04-30T20:23:32.951Z,11.10
2019-04-30T20:26:03.491Z,11.10
2019-04-30T20:28:41.411Z,11.00
2019-04-30T20:31:05.677Z,11.00
2019-04-30T20:33:36.600Z,11.00
2019-04-30T20:36:10.274Z,11.00
2019-04-30T20:39:04.367Z,10.90
2019-04-30T20:41:35.789Z,10.90
2019-04-30T20:44:06.636Z,10.80
2019-04-30T20:46:41.059Z,10.80
2019-04-30T20:49:11.590Z,10.80
2019-04-30T20:51:53.541Z,10.80
2019-04-30T20:54:19.003Z,10.90
2019-04-30T20:56:51.017Z,10.90
2019-04-30T20:59:20.694Z,10.80
2019-04-30T21:01:50.142Z,10.80
2019-04-30T21:04:21.323Z,10.70
2019-04-30T21:06:53.856Z,10.60
2019-04-30T21:09:23.310Z,10.60
2019-04-30T21:11:54.446Z,10.60
2019-04-30T21:14:26.607Z,10.70
2019-04-30T21:16:56.168Z,10.60
2019-04-30T21:19:28.455Z,10.70
2019-04-30T21:21:59.562Z,10.70
2019-04-30T21:24:30.920Z,10.70
2019-04-30T21:27:02.099Z,10.60
2019-04-30T21:29:34.447Z,10.60
2019-04-30T21:32:29.625Z,10.50
2019-04-30T21:35:36.027Z,10.60
2019-04-30T21:38:06.269Z,10.40
2019-04-30T21:40:36.765Z,10.40
2019-04-30T21:43:06.345Z,10.40
2019-04-30T21:45:39.887Z,10.40
2019-04-30T21:48:10.285Z,10.30
2019-04-30T21:50:40.164Z,10.40
2019-04-30T21:53:10.506Z,10.40
2019-04-30T21:55:41.446Z,10.20
2019-04-30T21:58:10.784Z,10.30
2019-04-30T22:01:04.741Z,10.40
2019-04-30T22:03:35.208Z,10.30
2019-04-30T22:06:04.732Z,10.30
2019-04-30T22:08:38.692Z,10.30
2019-04-30T22:11:09.608Z,10.30
2019-04-30T22:13:40.069Z,10.30
2019-04-30T22:16:13.576Z,10.30
2019-04-30T22:18:45.104Z,10.40
2019-04-30T22:21:16.070Z,10.30
2019-04-30T22:23:45.746Z,10.20
2019-04-30T22:26:18.723Z,10.10
2019-04-30T22:28:49.366Z,10.00
2019-04-30T22:31:19.957Z,9.90
2019-04-30T22:33:50.001Z,9.90
2019-04-30T22:36:33.134Z,9.80
2019-04-30T22:39:20.440Z,9.80
2019-04-30T22:41:50.008Z,9.80
2019-04-30T22:44:19.928Z,9.70
2019-04-30T22:46:49.753Z,9.70
2019-04-30T22:49:19.135Z,9.70
2019-04-30T22:51:48.545Z,9.70
2019-04-30T22:54:18.097Z,9.60
2019-04-30T22:57:07.270Z,9.50
2019-04-30T22:59:49.026Z,9.50
2019-04-30T23:02:14.680Z,9.50
2019-04-30T23:04:45.831Z,9.40
2019-04-30T23:07:16.819Z,9.40
2019-04-30T23:09:46.400Z,9.30
2019-04-30T23:12:17.129Z,9.30
2019-04-30T23:14:46.537Z,9.30
2019-04-30T23:17:17.161Z,9.20
2019-04-30T23:19:49.495Z,9.20
2019-04-30T23:22:20.608Z,9.10
2019-04-30T23:24:52.882Z,9.00
2019-04-30T23:27:23.711Z,9.00
2019-04-30T23:30:03.110Z,8.90
2019-04-30T23:32:24.812Z,8.80
2019-04-30T23:34:54.223Z,8.90
2019-04-30T23:37:24.696Z,8.90
2019-04-30T23:39:54.512Z,8.90
2019-04-30T23:42:24.045Z,8.90
2019-04-30T23:44:53.468Z,8.90
2019-04-30T23:47:23.841Z,8.80
2019-04-30T23:49:53.374Z,8.70
2019-04-30T23:52:22.782Z,8.80
2019-04-30T23:54:53.257Z,8.70
2019-04-30T23:57:23.171Z,8.60
2019-04-30T23:59:53.191Z,8.60
